createdAt,value
2022-11-24T05:05:06.213Z,1.58
2022-11-24T05:08:09.235Z,1.38
2022-11-24T05:11:11.993Z,2.43
2022-11-24T05:14:14.664Z,1.40
2022-11-24T05:17:17.606Z,1.45
2022-11-24T05:20:21.941Z,1.20
2022-11-24T05:23:25.087Z,1.33
2022-11-24T05:26:28.159Z,1.27
2022-11-24T05:29:30.947Z,2.27
2022-11-24T05:32:33.872Z,2.15
2022-11-24T05:35:36.905Z,1.65
2022-11-24T05:38:39.672Z,3.50
2022-11-24T05:41:42.739Z,1.20
2022-11-24T05:44:45.415Z,1.27
2022-11-24T05:47:49.518Z,1.55
2022-11-24T05:50:56.742Z,1.50
2022-11-24T05:53:59.518Z,1.88
2022-11-24T05:57:02.644Z,1.73
2022-11-24T06:00:07.346Z,2.10
2022-11-24T06:03:15.207Z,1.50
2022-11-24T06:06:17.962Z,2.65
2022-11-24T06:09:21.201Z,2.05
2022-11-24T06:12:23.957Z,1.48
2022-11-24T06:15:26.751Z,3.03
2022-11-24T06:18:29.503Z,1.52
2022-11-24T06:21:32.594Z,1.50
2022-11-24T06:24:35.615Z,1.30
2022-11-24T06:27:38.579Z,1.02
2022-11-24T06:30:41.280Z,1.90
2022-11-24T06:33:44.512Z,1.40
2022-11-24T06:36:47.362Z,1.77
2022-11-24T06:39:50.222Z,2.22
2022-11-24T06:42:53.292Z,1.38
2022-11-24T06:45:56.981Z,1.87
2022-11-24T06:49:00.852Z,1.42
2022-11-24T06:52:03.715Z,4.82
2022-11-24T06:55:16.124Z,2.35
2022-11-24T06:58:27.317Z,2.88
2022-11-24T07:01:30.500Z,4.03
2022-11-24T07:04:34.136Z,3.45
2022-11-24T07:07:37.180Z,3.45
2022-11-24T07:10:39.995Z,9.27
2022-11-24T07:13:43.925Z,4.38
2022-11-24T07:16:46.736Z,3.90
2022-11-24T07:19:49.605Z,3.28
2022-11-24T07:22:57.074Z,4.63
2022-11-24T07:26:05.218Z,4.90
2022-11-24T07:29:09.855Z,4.35
2022-11-24T07:32:12.685Z,3.10
2022-11-24T07:35:15.467Z,4.05
2022-11-24T07:38:18.208Z,5.75
2022-11-24T07:41:21.054Z,3.25
2022-11-24T07:44:26.919Z,2.72
2022-11-24T07:47:29.688Z,7.20
2022-11-24T07:50:32.648Z,4.78
2022-11-24T07:53:36.060Z,3.03
2022-11-24T07:56:38.817Z,5.10
2022-11-24T07:59:41.645Z,6.05
2022-11-24T08:02:44.776Z,7.20
2022-11-24T08:09:23.296Z,6.28
2022-11-24T08:12:26.027Z,9.15
2022-11-24T08:15:29.586Z,7.43
2022-11-24T08:18:32.982Z,7.10
2022-11-24T08:21:35.898Z,7.35
2022-11-24T08:24:46.435Z,9.50
2022-11-24T08:27:49.234Z,7.20
2022-11-24T08:30:52.279Z,6.50
2022-11-24T08:33:56.109Z,5.37
2022-11-24T08:36:58.848Z,6.00
2022-11-24T08:40:01.593Z,8.32
2022-11-24T08:43:04.481Z,7.85
2022-11-24T08:46:10.791Z,8.18
2022-11-24T08:49:16.566Z,7.73
2022-11-24T08:52:39.899Z,6.22
2022-11-24T08:55:42.807Z,8.35
2022-11-24T08:58:45.596Z,6.95
2022-11-24T09:01:49.795Z,6.45
2022-11-24T09:04:53.785Z,8.00
2022-11-24T09:07:58.443Z,6.60
2022-11-24T09:11:02.587Z,8.50
2022-11-24T09:14:05.667Z,8.57
2022-11-24T09:17:08.552Z,8.60
2022-11-24T09:20:11.399Z,8.50
2022-11-24T09:23:14.845Z,5.57
2022-11-24T09:26:28.283Z,7.57
2022-11-24T09:29:31.252Z,7.72
2022-11-24T09:32:34.050Z,7.57
2022-11-24T09:36:08.628Z,8.67
2022-11-24T09:39:12.567Z,6.47
2022-11-24T09:42:53.379Z,9.82
2022-11-24T09:46:06.890Z,5.90
2022-11-24T09:49:35.124Z,8.43
2022-11-24T09:52:38.183Z,7.87
2022-11-24T09:55:50.364Z,7.55
2022-11-24T09:59:15.806Z,6.60
2022-11-24T10:02:50.893Z,6.40
2022-11-24T10:05:53.799Z,7.30
2022-11-24T10:09:21.106Z,6.17
2022-11-24T10:12:28.192Z,6.55
2022-11-24T10:15:55.488Z,6.95
2022-11-24T10:19:33.902Z,7.35
2022-11-24T10:22:44.889Z,6.80
